sensor_id;sensor_type;location;lat;lon;timestamp;P1;durP1;ratioP1;P2;durP2;ratioP2
17753;SDS011;8999;48.994;9.150;2024-03-02T00:00:29;22.30;;;14.38;;
17753;SDS011;8999;48.994;9.150;2024-03-02T00:03:03;23.20;;;14.38;;
17753;SDS011;8999;48.994;9.150;2024-03-02T00:05:37;25.23;;;14.38;;
17753;SDS011;8999;48.994;9.150;2024-03-02T00:08:12;23.55;;;14.50;;
17753;SDS011;8999;48.994;9.150;2024-03-02T00:10:44;21.17;;;14.02;;
17753;SDS011;8999;48.994;9.150;2024-03-02T00:13:16;24.52;;;14.43;;
17753;SDS011;8999;48.994;9.150;2024-03-02T00:15:47;24.63;;;14.10;;
17753;SDS011;8999;48.994;9.150;2024-03-02T00:18:24;22.38;;;13.20;;
17753;SDS011;8999;48.994;9.150;2024-03-02T00:20:57;22.88;;;13.63;;
17753;SDS011;8999;48.994;9.150;2024-03-02T00:23:29;23.80;;;13.88;;
17753;SDS011;8999;48.994;9.150;2024-03-02T00:26:02;22.15;;;13.40;;
17753;SDS011;8999;48.994;9.150;2024-03-02T00:28:34;21.33;;;12.82;;
17753;SDS011;8999;48.994;9.150;2024-03-02T00:31:07;20.92;;;12.73;;
17753;SDS011;8999;48.994;9.150;2024-03-02T00:33:43;20.40;;;12.27;;
17753;SDS011;8999;48.994;9.150;2024-03-02T00:36:17;24.48;;;13.85;;
17753;SDS011;8999;48.994;9.150;2024-03-02T00:38:54;24.75;;;14.90;;
17753;SDS011;8999;48.994;9.150;2024-03-02T00:41:27;23.98;;;15.20;;
17753;SDS011;8999;48.994;9.150;2024-03-02T00:44:02;25.52;;;15.20;;
17753;SDS011;8999;48.994;9.150;2024-03-02T00:46:36;22.75;;;14.05;;
17753;SDS011;8999;48.994;9.150;2024-03-02T00:49:12;21.85;;;13.57;;
17753;SDS011;8999;48.994;9.150;2024-03-02T00:51:51;26.02;;;13.00;;
17753;SDS011;8999;48.994;9.150;2024-03-02T00:54:24;23.65;;;12.57;;
17753;SDS011;8999;48.994;9.150;2024-03-02T00:56:58;24.90;;;12.65;;
17753;SDS011;8999;48.994;9.150;2024-03-02T00:59:29;23.17;;;13.93;;
17753;SDS011;8999;48.994;9.150;2024-03-02T01:02:01;25.80;;;13.55;;
17753;SDS011;8999;48.994;9.150;2024-03-02T01:04:35;26.13;;;14.27;;
17753;SDS011;8999;48.994;9.150;2024-03-02T01:07:07;27.25;;;15.30;;
17753;SDS011;8999;48.994;9.150;2024-03-02T01:09:40;24.88;;;14.00;;
17753;SDS011;8999;48.994;9.150;2024-03-02T01:12:11;22.50;;;13.45;;
17753;SDS011;8999;48.994;9.150;2024-03-02T01:14:43;24.35;;;13.35;;
17753;SDS011;8999;48.994;9.150;2024-03-02T01:17:15;24.65;;;14.05;;
17753;SDS011;8999;48.994;9.150;2024-03-02T01:23:21;23.30;;;13.40;;
17753;SDS011;8999;48.994;9.150;2024-03-02T01:26:00;26.40;;;14.15;;
17753;SDS011;8999;48.994;9.150;2024-03-02T01:32:09;23.60;;;13.52;;
17753;SDS011;8999;48.994;9.150;2024-03-02T01:35:12;23.40;;;13.32;;
17753;SDS011;8999;48.994;9.150;2024-03-02T01:37:46;21.73;;;12.52;;
17753;SDS011;8999;48.994;9.150;2024-03-02T01:40:17;22.13;;;13.07;;
17753;SDS011;8999;48.994;9.150;2024-03-02T01:42:50;24.23;;;13.50;;
17753;SDS011;8999;48.994;9.150;2024-03-02T01:45:22;23.00;;;12.90;;
17753;SDS011;8999;48.994;9.150;2024-03-02T01:47:53;27.60;;;13.45;;
17753;SDS011;8999;48.994;9.150;2024-03-02T01:50:25;21.67;;;13.23;;
17753;SDS011;8999;48.994;9.150;2024-03-02T01:53:00;20.13;;;11.90;;
17753;SDS011;8999;48.994;9.150;2024-03-02T01:55:32;21.08;;;12.85;;
17753;SDS011;8999;48.994;9.150;2024-03-02T01:58:04;24.58;;;13.90;;
17753;SDS011;8999;48.994;9.150;2024-03-02T02:00:36;19.23;;;11.90;;
17753;SDS011;8999;48.994;9.150;2024-03-02T02:03:08;22.58;;;12.45;;
17753;SDS011;8999;48.994;9.150;2024-03-02T02:05:41;21.27;;;12.25;;
17753;SDS011;8999;48.994;9.150;2024-03-02T02:08:14;16.65;;;10.57;;
17753;SDS011;8999;48.994;9.150;2024-03-02T02:10:46;23.17;;;12.85;;
17753;SDS011;8999;48.994;9.150;2024-03-02T02:13:18;21.00;;;12.98;;
17753;SDS011;8999;48.994;9.150;2024-03-02T02:15:49;23.13;;;13.27;;
17753;SDS011;8999;48.994;9.150;2024-03-02T02:18:23;20.83;;;12.60;;
17753;SDS011;8999;48.994;9.150;2024-03-02T02:20:54;20.00;;;12.50;;
17753;SDS011;8999;48.994;9.150;2024-03-02T02:23:28;19.45;;;12.15;;
17753;SDS011;8999;48.994;9.150;2024-03-02T02:26:00;19.33;;;11.88;;
17753;SDS011;8999;48.994;9.150;2024-03-02T02:28:33;21.92;;;13.45;;
17753;SDS011;8999;48.994;9.150;2024-03-02T02:31:05;21.40;;;12.45;;
17753;SDS011;8999;48.994;9.150;2024-03-02T02:33:38;23.73;;;13.35;;
17753;SDS011;8999;48.994;9.150;2024-03-02T02:36:10;21.50;;;12.65;;
17753;SDS011;8999;48.994;9.150;2024-03-02T02:38:44;18.05;;;11.38;;
17753;SDS011;8999;48.994;9.150;2024-03-02T02:41:17;21.40;;;12.38;;
17753;SDS011;8999;48.994;9.150;2024-03-02T02:43:49;21.25;;;12.32;;
17753;SDS011;8999;48.994;9.150;2024-03-02T02:46:20;19.50;;;11.25;;
17753;SDS011;8999;48.994;9.150;2024-03-02T02:48:54;18.85;;;11.88;;
17753;SDS011;8999;48.994;9.150;2024-03-02T02:51:26;24.08;;;12.20;;
17753;SDS011;8999;48.994;9.150;2024-03-02T02:53:59;23.05;;;12.27;;
17753;SDS011;8999;48.994;9.150;2024-03-02T02:56:31;20.90;;;12.38;;
17753;SDS011;8999;48.994;9.150;2024-03-02T02:59:02;20.85;;;12.88;;
17753;SDS011;8999;48.994;9.150;2024-03-02T03:01:34;21.17;;;12.50;;
17753;SDS011;8999;48.994;9.150;2024-03-02T03:04:06;19.88;;;11.43;;
17753;SDS011;8999;48.994;9.150;2024-03-02T03:06:37;20.92;;;12.52;;
17753;SDS011;8999;48.994;9.150;2024-03-02T03:09:10;20.40;;;11.32;;
17753;SDS011;8999;48.994;9.150;2024-03-02T03:11:42;23.95;;;12.60;;
17753;SDS011;8999;48.994;9.150;2024-03-02T03:14:14;23.08;;;13.05;;
17753;SDS011;8999;48.994;9.150;2024-03-02T03:16:46;23.00;;;12.90;;
17753;SDS011;8999;48.994;9.150;2024-03-02T03:19:18;24.80;;;13.25;;
17753;SDS011;8999;48.994;9.150;2024-03-02T03:21:50;22.10;;;12.63;;
17753;SDS011;8999;48.994;9.150;2024-03-02T03:24:23;21.55;;;12.73;;
17753;SDS011;8999;48.994;9.150;2024-03-02T03:26:54;25.60;;;13.38;;
17753;SDS011;8999;48.994;9.150;2024-03-02T03:29:26;24.00;;;13.55;;
17753;SDS011;8999;48.994;9.150;2024-03-02T03:31:58;24.45;;;13.20;;
17753;SDS011;8999;48.994;9.150;2024-03-02T03:34:29;21.42;;;12.15;;
17753;SDS011;8999;48.994;9.150;2024-03-02T03:37:03;24.38;;;13.40;;
17753;SDS011;8999;48.994;9.150;2024-03-02T03:39:36;20.77;;;12.05;;
17753;SDS011;8999;48.994;9.150;2024-03-02T03:42:08;22.52;;;11.60;;
17753;SDS011;8999;48.994;9.150;2024-03-02T03:44:39;21.70;;;11.73;;
17753;SDS011;8999;48.994;9.150;2024-03-02T03:47:11;21.95;;;12.40;;
17753;SDS011;8999;48.994;9.150;2024-03-02T03:49:43;21.27;;;12.23;;
17753;SDS011;8999;48.994;9.150;2024-03-02T03:52:15;21.38;;;12.75;;
17753;SDS011;8999;48.994;9.150;2024-03-02T03:54:48;21.02;;;12.65;;
17753;SDS011;8999;48.994;9.150;2024-03-02T03:57:19;22.20;;;11.98;;
17753;SDS011;8999;48.994;9.150;2024-03-02T03:59:51;20.00;;;12.00;;
17753;SDS011;8999;48.994;9.150;2024-03-02T04:02:22;22.00;;;12.27;;
17753;SDS011;8999;48.994;9.150;2024-03-02T04:04:54;18.98;;;11.20;;
17753;SDS011;8999;48.994;9.150;2024-03-02T04:07:26;20.40;;;11.93;;
17753;SDS011;8999;48.994;9.150;2024-03-02T04:09:59;21.25;;;12.50;;
17753;SDS011;8999;48.994;9.150;2024-03-02T04:12:31;20.77;;;12.02;;
17753;SDS011;8999;48.994;9.150;2024-03-02T04:15:04;21.80;;;12.60;;
17753;SDS011;8999;48.994;9.150;2024-03-02T04:17:36;21.48;;;12.43;;
17753;SDS011;8999;48.994;9.150;2024-03-02T04:20:09;20.63;;;11.95;;
17753;SDS011;8999;48.994;9.150;2024-03-02T04:22:42;22.38;;;12.73;;
17753;SDS011;8999;48.994;9.150;2024-03-02T04:25:15;23.20;;;13.45;;
17753;SDS011;8999;48.994;9.150;2024-03-02T04:27:47;23.73;;;13.30;;
17753;SDS011;8999;48.994;9.150;2024-03-02T04:30:18;22.35;;;13.10;;
17753;SDS011;8999;48.994;9.150;2024-03-02T04:32:50;24.60;;;13.30;;
17753;SDS011;8999;48.994;9.150;2024-03-02T04:35:22;24.27;;;13.80;;
17753;SDS011;8999;48.994;9.150;2024-03-02T04:37:53;23.23;;;13.23;;
17753;SDS011;8999;48.994;9.150;2024-03-02T04:40:26;23.58;;;12.98;;
17753;SDS011;8999;48.994;9.150;2024-03-02T04:42:58;22.38;;;12.52;;
17753;SDS011;8999;48.994;9.150;2024-03-02T04:45:30;30.42;;;16.02;;
17753;SDS011;8999;48.994;9.150;2024-03-02T04:48:02;31.60;;;17.65;;
17753;SDS011;8999;48.994;9.150;2024-03-02T04:50:33;39.35;;;18.63;;
17753;SDS011;8999;48.994;9.150;2024-03-02T04:53:05;26.75;;;14.88;;
17753;SDS011;8999;48.994;9.150;2024-03-02T04:55:38;23.27;;;13.40;;
17753;SDS011;8999;48.994;9.150;2024-03-02T04:58:27;24.67;;;13.68;;
17753;SDS011;8999;48.994;9.150;2024-03-02T05:00:59;24.08;;;13.45;;
17753;SDS011;8999;48.994;9.150;2024-03-02T05:03:31;27.48;;;13.65;;
17753;SDS011;8999;48.994;9.150;2024-03-02T05:06:04;25.17;;;13.50;;
17753;SDS011;8999;48.994;9.150;2024-03-02T05:08:36;28.23;;;13.65;;
17753;SDS011;8999;48.994;9.150;2024-03-02T05:11:09;28.05;;;14.48;;
17753;SDS011;8999;48.994;9.150;2024-03-02T05:14:10;23.08;;;12.77;;
17753;SDS011;8999;48.994;9.150;2024-03-02T05:16:44;25.20;;;13.60;;
17753;SDS011;8999;48.994;9.150;2024-03-02T05:19:15;24.58;;;13.27;;
17753;SDS011;8999;48.994;9.150;2024-03-02T05:21:47;25.55;;;14.27;;
17753;SDS011;8999;48.994;9.150;2024-03-02T05:24:19;24.48;;;13.48;;
17753;SDS011;8999;48.994;9.150;2024-03-02T05:26:52;24.58;;;13.43;;
17753;SDS011;8999;48.994;9.150;2024-03-02T05:29:24;27.00;;;14.45;;
17753;SDS011;8999;48.994;9.150;2024-03-02T05:31:56;32.30;;;15.10;;
17753;SDS011;8999;48.994;9.150;2024-03-02T05:34:27;31.35;;;16.52;;
17753;SDS011;8999;48.994;9.150;2024-03-02T05:36:59;29.98;;;15.95;;
17753;SDS011;8999;48.994;9.150;2024-03-02T05:39:31;27.50;;;13.75;;
17753;SDS011;8999;48.994;9.150;2024-03-02T05:42:04;27.05;;;13.95;;
17753;SDS011;8999;48.994;9.150;2024-03-02T05:44:36;29.70;;;14.48;;
17753;SDS011;8999;48.994;9.150;2024-03-02T05:47:08;26.85;;;13.90;;
17753;SDS011;8999;48.994;9.150;2024-03-02T05:49:39;26.65;;;13.43;;
17753;SDS011;8999;48.994;9.150;2024-03-02T05:52:11;26.17;;;14.25;;
17753;SDS011;8999;48.994;9.150;2024-03-02T05:54:43;28.20;;;14.82;;
17753;SDS011;8999;48.994;9.150;2024-03-02T05:57:16;27.63;;;15.10;;
17753;SDS011;8999;48.994;9.150;2024-03-02T06:00:02;26.02;;;14.32;;
17753;SDS011;8999;48.994;9.150;2024-03-02T06:02:38;29.08;;;14.43;;
17753;SDS011;8999;48.994;9.150;2024-03-02T06:05:10;31.50;;;15.13;;
17753;SDS011;8999;48.994;9.150;2024-03-02T06:07:42;26.20;;;14.80;;
17753;SDS011;8999;48.994;9.150;2024-03-02T06:10:14;28.15;;;14.32;;
17753;SDS011;8999;48.994;9.150;2024-03-02T06:12:47;28.10;;;14.40;;
17753;SDS011;8999;48.994;9.150;2024-03-02T06:15:20;26.67;;;13.70;;
17753;SDS011;8999;48.994;9.150;2024-03-02T06:17:51;27.50;;;14.43;;
17753;SDS011;8999;48.994;9.150;2024-03-02T06:20:23;27.77;;;14.60;;
17753;SDS011;8999;48.994;9.150;2024-03-02T06:22:56;28.83;;;14.43;;
17753;SDS011;8999;48.994;9.150;2024-03-02T06:25:28;29.67;;;14.38;;
17753;SDS011;8999;48.994;9.150;2024-03-02T06:28:01;26.00;;;14.00;;
17753;SDS011;8999;48.994;9.150;2024-03-02T06:30:34;28.45;;;15.10;;
17753;SDS011;8999;48.994;9.150;2024-03-02T06:33:06;26.83;;;14.23;;
17753;SDS011;8999;48.994;9.150;2024-03-02T06:35:37;27.85;;;14.13;;
17753;SDS011;8999;48.994;9.150;2024-03-02T06:38:09;35.80;;;16.55;;
17753;SDS011;8999;48.994;9.150;2024-03-02T06:40:41;28.20;;;15.85;;
17753;SDS011;8999;48.994;9.150;2024-03-02T06:43:14;29.20;;;15.73;;
17753;SDS011;8999;48.994;9.150;2024-03-02T06:45:45;25.85;;;14.25;;
17753;SDS011;8999;48.994;9.150;2024-03-02T06:48:17;26.90;;;14.48;;
17753;SDS011;8999;48.994;9.150;2024-03-02T06:50:50;23.33;;;13.73;;
17753;SDS011;8999;48.994;9.150;2024-03-02T06:53:22;28.17;;;14.18;;
17753;SDS011;8999;48.994;9.150;2024-03-02T06:55:53;26.17;;;13.27;;
17753;SDS011;8999;48.994;9.150;2024-03-02T06:58:26;23.33;;;13.18;;
17753;SDS011;8999;48.994;9.150;2024-03-02T07:00:58;24.50;;;13.18;;
17753;SDS011;8999;48.994;9.150;2024-03-02T07:03:30;23.88;;;12.98;;
17753;SDS011;8999;48.994;9.150;2024-03-02T07:06:03;23.90;;;12.82;;
17753;SDS011;8999;48.994;9.150;2024-03-02T07:08:35;23.00;;;12.63;;
17753;SDS011;8999;48.994;9.150;2024-03-02T07:11:06;22.95;;;12.30;;
17753;SDS011;8999;48.994;9.150;2024-03-02T07:13:39;21.67;;;11.68;;
17753;SDS011;8999;48.994;9.150;2024-03-02T07:16:11;20.35;;;11.52;;
17753;SDS011;8999;48.994;9.150;2024-03-02T07:19:00;20.65;;;11.70;;
17753;SDS011;8999;48.994;9.150;2024-03-02T07:21:31;20.02;;;11.93;;
17753;SDS011;8999;48.994;9.150;2024-03-02T07:24:03;21.90;;;12.73;;
17753;SDS011;8999;48.994;9.150;2024-03-02T07:26:36;20.38;;;11.13;;
17753;SDS011;8999;48.994;9.150;2024-03-02T07:29:09;20.83;;;12.85;;
17753;SDS011;8999;48.994;9.150;2024-03-02T07:31:41;18.98;;;11.38;;
17753;SDS011;8999;48.994;9.150;2024-03-02T07:34:13;19.15;;;11.40;;
17753;SDS011;8999;48.994;9.150;2024-03-02T07:36:44;18.30;;;10.85;;
17753;SDS011;8999;48.994;9.150;2024-03-02T07:39:16;18.05;;;10.95;;
17753;SDS011;8999;48.994;9.150;2024-03-02T07:41:49;18.25;;;10.40;;
17753;SDS011;8999;48.994;9.150;2024-03-02T07:44:22;19.65;;;9.90;;
17753;SDS011;8999;48.994;9.150;2024-03-02T07:46:54;18.15;;;9.65;;
17753;SDS011;8999;48.994;9.150;2024-03-02T07:49:26;15.70;;;8.88;;
17753;SDS011;8999;48.994;9.150;2024-03-02T07:51:57;16.38;;;9.13;;
17753;SDS011;8999;48.994;9.150;2024-03-02T07:54:29;15.68;;;8.90;;
17753;SDS011;8999;48.994;9.150;2024-03-02T07:57:01;17.63;;;9.45;;
17753;SDS011;8999;48.994;9.150;2024-03-02T07:59:34;13.73;;;8.68;;
17753;SDS011;8999;48.994;9.150;2024-03-02T08:02:06;15.85;;;9.18;;
17753;SDS011;8999;48.994;9.150;2024-03-02T08:04:38;19.17;;;9.07;;
17753;SDS011;8999;48.994;9.150;2024-03-02T08:07:10;17.77;;;11.13;;
17753;SDS011;8999;48.994;9.150;2024-03-02T08:09:41;16.58;;;10.35;;
17753;SDS011;8999;48.994;9.150;2024-03-02T08:12:13;18.48;;;11.40;;
17753;SDS011;8999;48.994;9.150;2024-03-02T08:14:46;16.30;;;10.02;;
17753;SDS011;8999;48.994;9.150;2024-03-02T08:17:18;16.80;;;10.07;;
17753;SDS011;8999;48.994;9.150;2024-03-02T08:19:50;15.85;;;9.98;;
17753;SDS011;8999;48.994;9.150;2024-03-02T08:22:21;13.52;;;8.75;;
17753;SDS011;8999;48.994;9.150;2024-03-02T08:24:53;16.55;;;9.52;;
17753;SDS011;8999;48.994;9.150;2024-03-02T08:27:25;16.95;;;10.18;;
17753;SDS011;8999;48.994;9.150;2024-03-02T08:29:58;18.05;;;10.32;;
17753;SDS011;8999;48.994;9.150;2024-03-02T08:32:30;15.50;;;9.82;;
17753;SDS011;8999;48.994;9.150;2024-03-02T08:35:01;16.17;;;10.20;;
17753;SDS011;8999;48.994;9.150;2024-03-02T08:37:34;16.15;;;9.75;;
17753;SDS011;8999;48.994;9.150;2024-03-02T08:40:06;17.58;;;9.95;;
17753;SDS011;8999;48.994;9.150;2024-03-02T08:42:39;20.33;;;10.90;;
17753;SDS011;8999;48.994;9.150;2024-03-02T08:45:12;16.73;;;10.55;;
17753;SDS011;8999;48.994;9.150;2024-03-02T08:47:44;14.15;;;9.45;;
17753;SDS011;8999;48.994;9.150;2024-03-02T08:50:16;14.90;;;8.02;;
17753;SDS011;8999;48.994;9.150;2024-03-02T08:52:47;12.73;;;7.43;;
17753;SDS011;8999;48.994;9.150;2024-03-02T08:55:19;11.57;;;7.43;;
17753;SDS011;8999;48.994;9.150;2024-03-02T08:57:50;9.93;;;7.28;;
17753;SDS011;8999;48.994;9.150;2024-03-02T09:00:23;11.20;;;6.78;;
17753;SDS011;8999;48.994;9.150;2024-03-02T09:02:56;10.52;;;6.78;;
17753;SDS011;8999;48.994;9.150;2024-03-02T09:05:27;10.23;;;6.97;;
17753;SDS011;8999;48.994;9.150;2024-03-02T09:07:59;10.98;;;6.28;;
17753;SDS011;8999;48.994;9.150;2024-03-02T09:10:31;8.55;;;5.93;;
17753;SDS011;8999;48.994;9.150;2024-03-02T09:13:03;8.90;;;5.97;;
17753;SDS011;8999;48.994;9.150;2024-03-02T09:15:36;9.30;;;5.72;;
17753;SDS011;8999;48.994;9.150;2024-03-02T09:18:09;8.43;;;6.35;;
17753;SDS011;8999;48.994;9.150;2024-03-02T09:20:41;7.95;;;5.30;;
17753;SDS011;8999;48.994;9.150;2024-03-02T09:23:13;7.10;;;5.72;;
17753;SDS011;8999;48.994;9.150;2024-03-02T09:25:45;8.95;;;5.97;;
17753;SDS011;8999;48.994;9.150;2024-03-02T09:28:17;10.18;;;5.90;;
17753;SDS011;8999;48.994;9.150;2024-03-02T09:30:50;8.18;;;5.43;;
17753;SDS011;8999;48.994;9.150;2024-03-02T09:33:22;9.68;;;6.13;;
17753;SDS011;8999;48.994;9.150;2024-03-02T09:35:54;7.47;;;5.25;;
17753;SDS011;8999;48.994;9.150;2024-03-02T09:38:25;8.07;;;6.05;;
17753;SDS011;8999;48.994;9.150;2024-03-02T09:40:57;9.38;;;6.35;;
17753;SDS011;8999;48.994;9.150;2024-03-02T09:43:29;7.93;;;5.72;;
17753;SDS011;8999;48.994;9.150;2024-03-02T09:46:02;8.85;;;6.07;;
17753;SDS011;8999;48.994;9.150;2024-03-02T09:48:34;9.07;;;5.88;;
17753;SDS011;8999;48.994;9.150;2024-03-02T09:51:06;9.60;;;6.22;;
17753;SDS011;8999;48.994;9.150;2024-03-02T09:53:39;9.30;;;5.50;;
17753;SDS011;8999;48.994;9.150;2024-03-02T09:56:10;7.53;;;5.35;;
17753;SDS011;8999;48.994;9.150;2024-03-02T09:58:42;7.95;;;4.82;;
17753;SDS011;8999;48.994;9.150;2024-03-02T10:01:16;8.07;;;4.85;;
17753;SDS011;8999;48.994;9.150;2024-03-02T10:03:48;6.65;;;4.70;;
17753;SDS011;8999;48.994;9.150;2024-03-02T10:06:22;7.63;;;5.25;;
17753;SDS011;8999;48.994;9.150;2024-03-02T10:08:55;5.90;;;4.38;;
17753;SDS011;8999;48.994;9.150;2024-03-02T10:11:27;5.50;;;3.75;;
17753;SDS011;8999;48.994;9.150;2024-03-02T10:14:04;5.32;;;3.85;;
17753;SDS011;8999;48.994;9.150;2024-03-02T10:16:40;5.55;;;4.13;;
17753;SDS011;8999;48.994;9.150;2024-03-02T10:19:14;5.00;;;3.60;;
17753;SDS011;8999;48.994;9.150;2024-03-02T10:21:47;6.57;;;4.00;;
17753;SDS011;8999;48.994;9.150;2024-03-02T10:24:20;5.15;;;4.00;;
17753;SDS011;8999;48.994;9.150;2024-03-02T10:26:52;4.38;;;3.38;;
17753;SDS011;8999;48.994;9.150;2024-03-02T10:29:24;5.00;;;3.80;;
17753;SDS011;8999;48.994;9.150;2024-03-02T10:32:01;5.13;;;3.47;;
17753;SDS011;8999;48.994;9.150;2024-03-02T10:34:34;6.45;;;3.70;;
17753;SDS011;8999;48.994;9.150;2024-03-02T10:37:06;4.40;;;3.20;;
17753;SDS011;8999;48.994;9.150;2024-03-02T10:39:38;4.90;;;2.92;;
17753;SDS011;8999;48.994;9.150;2024-03-02T10:42:10;5.15;;;3.97;;
17753;SDS011;8999;48.994;9.150;2024-03-02T10:44:43;4.55;;;3.75;;
17753;SDS011;8999;48.994;9.150;2024-03-02T10:47:16;4.93;;;3.63;;
17753;SDS011;8999;48.994;9.150;2024-03-02T10:49:51;5.18;;;3.30;;
17753;SDS011;8999;48.994;9.150;2024-03-02T10:52:23;3.35;;;2.95;;
17753;SDS011;8999;48.994;9.150;2024-03-02T10:54:55;5.25;;;3.40;;
17753;SDS011;8999;48.994;9.150;2024-03-02T10:57:26;3.40;;;2.95;;
17753;SDS011;8999;48.994;9.150;2024-03-02T11:00:02;5.20;;;3.55;;
17753;SDS011;8999;48.994;9.150;2024-03-02T11:02:36;4.35;;;3.22;;
17753;SDS011;8999;48.994;9.150;2024-03-02T11:05:09;4.10;;;3.22;;
17753;SDS011;8999;48.994;9.150;2024-03-02T11:07:42;2.80;;;2.50;;
17753;SDS011;8999;48.994;9.150;2024-03-02T11:10:13;4.30;;;2.92;;
17753;SDS011;8999;48.994;9.150;2024-03-02T11:12:48;4.45;;;3.10;;
17753;SDS011;8999;48.994;9.150;2024-03-02T11:15:24;5.13;;;3.05;;
17753;SDS011;8999;48.994;9.150;2024-03-02T11:17:58;4.30;;;2.92;;
17753;SDS011;8999;48.994;9.150;2024-03-02T11:20:30;4.72;;;2.83;;
17753;SDS011;8999;48.994;9.150;2024-03-02T11:23:05;2.95;;;2.40;;
17753;SDS011;8999;48.994;9.150;2024-03-02T11:25:37;4.90;;;2.60;;
17753;SDS011;8999;48.994;9.150;2024-03-02T11:28:09;4.25;;;2.67;;
17753;SDS011;8999;48.994;9.150;2024-03-02T11:30:50;3.72;;;2.65;;
17753;SDS011;8999;48.994;9.150;2024-03-02T11:33:31;4.30;;;2.70;;
17753;SDS011;8999;48.994;9.150;2024-03-02T11:36:03;3.40;;;2.55;;
17753;SDS011;8999;48.994;9.150;2024-03-02T11:38:37;7.45;;;3.20;;
17753;SDS011;8999;48.994;9.150;2024-03-02T11:41:08;3.15;;;2.00;;
17753;SDS011;8999;48.994;9.150;2024-03-02T11:43:41;3.58;;;2.28;;
17753;SDS011;8999;48.994;9.150;2024-03-02T11:46:14;2.95;;;2.10;;
17753;SDS011;8999;48.994;9.150;2024-03-02T11:48:47;2.75;;;2.20;;
17753;SDS011;8999;48.994;9.150;2024-03-02T11:51:19;3.35;;;2.00;;
17753;SDS011;8999;48.994;9.150;2024-03-02T11:53:51;4.43;;;2.22;;
17753;SDS011;8999;48.994;9.150;2024-03-02T11:56:22;2.13;;;1.55;;
17753;SDS011;8999;48.994;9.150;2024-03-02T11:58:55;2.40;;;1.50;;
17753;SDS011;8999;48.994;9.150;2024-03-02T12:01:27;2.70;;;1.85;;
17753;SDS011;8999;48.994;9.150;2024-03-02T12:04:02;2.83;;;2.00;;
17753;SDS011;8999;48.994;9.150;2024-03-02T12:06:34;2.08;;;1.70;;
17753;SDS011;8999;48.994;9.150;2024-03-02T12:09:07;1.98;;;1.55;;
17753;SDS011;8999;48.994;9.150;2024-03-02T12:11:42;1.77;;;1.38;;
17753;SDS011;8999;48.994;9.150;2024-03-02T12:14:14;4.03;;;1.33;;
17753;SDS011;8999;48.994;9.150;2024-03-02T12:16:45;2.47;;;1.55;;
17753;SDS011;8999;48.994;9.150;2024-03-02T12:19:19;2.00;;;1.70;;
17753;SDS011;8999;48.994;9.150;2024-03-02T12:21:50;2.67;;;1.80;;
17753;SDS011;8999;48.994;9.150;2024-03-02T12:24:22;2.03;;;1.60;;
17753;SDS011;8999;48.994;9.150;2024-03-02T12:26:54;2.28;;;1.63;;
17753;SDS011;8999;48.994;9.150;2024-03-02T12:29:26;2.28;;;1.65;;
17753;SDS011;8999;48.994;9.150;2024-03-02T12:31:58;4.60;;;1.40;;
17753;SDS011;8999;48.994;9.150;2024-03-02T12:34:33;2.22;;;1.70;;
17753;SDS011;8999;48.994;9.150;2024-03-02T12:37:05;2.40;;;1.60;;
17753;SDS011;8999;48.994;9.150;2024-03-02T12:39:37;1.63;;;1.38;;
17753;SDS011;8999;48.994;9.150;2024-03-02T12:42:08;4.70;;;1.60;;
17753;SDS011;8999;48.994;9.150;2024-03-02T12:44:40;2.72;;;1.50;;
17753;SDS011;8999;48.994;9.150;2024-03-02T12:47:12;1.50;;;1.20;;
17753;SDS011;8999;48.994;9.150;2024-03-02T12:49:45;1.75;;;1.25;;
17753;SDS011;8999;48.994;9.150;2024-03-02T12:52:17;1.88;;;1.38;;
17753;SDS011;8999;48.994;9.150;2024-03-02T12:54:48;2.85;;;1.38;;
17753;SDS011;8999;48.994;9.150;2024-03-02T12:57:20;1.50;;;1.20;;
17753;SDS011;8999;48.994;9.150;2024-03-02T12:59:52;1.95;;;1.30;;
17753;SDS011;8999;48.994;9.150;2024-03-02T13:02:26;1.55;;;1.30;;
17753;SDS011;8999;48.994;9.150;2024-03-02T13:05:00;1.80;;;1.23;;
17753;SDS011;8999;48.994;9.150;2024-03-02T13:07:32;1.10;;;1.00;;
17753;SDS011;8999;48.994;9.150;2024-03-02T13:10:04;1.38;;;1.10;;
17753;SDS011;8999;48.994;9.150;2024-03-02T13:12:37;1.00;;;0.90;;
17753;SDS011;8999;48.994;9.150;2024-03-02T13:17:49;2.17;;;1.23;;
17753;SDS011;8999;48.994;9.150;2024-03-02T13:20:22;1.98;;;1.25;;
17753;SDS011;8999;48.994;9.150;2024-03-02T13:22:54;2.38;;;0.90;;
17753;SDS011;8999;48.994;9.150;2024-03-02T13:25:25;1.00;;;0.90;;
17753;SDS011;8999;48.994;9.150;2024-03-02T13:27:57;1.50;;;0.98;;
17753;SDS011;8999;48.994;9.150;2024-03-02T13:30:29;3.65;;;0.90;;
17753;SDS011;8999;48.994;9.150;2024-03-02T13:33:01;1.00;;;0.85;;
17753;SDS011;8999;48.994;9.150;2024-03-02T13:35:34;2.13;;;0.85;;
17753;SDS011;8999;48.994;9.150;2024-03-02T13:38:05;1.35;;;1.00;;
17753;SDS011;8999;48.994;9.150;2024-03-02T13:40:37;1.63;;;0.90;;
17753;SDS011;8999;48.994;9.150;2024-03-02T13:43:10;0.95;;;0.75;;
17753;SDS011;8999;48.994;9.150;2024-03-02T13:45:42;3.35;;;0.80;;
17753;SDS011;8999;48.994;9.150;2024-03-02T13:48:14;1.20;;;0.90;;
17753;SDS011;8999;48.994;9.150;2024-03-02T13:50:47;1.17;;;0.82;;
17753;SDS011;8999;48.994;9.150;2024-03-02T13:53:19;2.00;;;0.70;;
17753;SDS011;8999;48.994;9.150;2024-03-02T13:55:51;3.47;;;0.90;;
17753;SDS011;8999;48.994;9.150;2024-03-02T13:58:22;0.70;;;0.70;;
17753;SDS011;8999;48.994;9.150;2024-03-02T14:00:54;0.77;;;0.75;;
17753;SDS011;8999;48.994;9.150;2024-03-02T14:03:27;0.63;;;0.60;;
17753;SDS011;8999;48.994;9.150;2024-03-02T14:06:00;1.10;;;0.85;;
17753;SDS011;8999;48.994;9.150;2024-03-02T14:08:32;2.25;;;0.88;;
17753;SDS011;8999;48.994;9.150;2024-03-02T14:11:06;1.98;;;1.13;;
17753;SDS011;8999;48.994;9.150;2024-03-02T14:13:37;1.33;;;0.70;;
17753;SDS011;8999;48.994;9.150;2024-03-02T14:16:09;0.80;;;0.80;;
17753;SDS011;8999;48.994;9.150;2024-03-02T14:18:41;1.17;;;0.75;;
17753;SDS011;8999;48.994;9.150;2024-03-02T14:21:14;1.33;;;0.80;;
17753;SDS011;8999;48.994;9.150;2024-03-02T14:23:46;1.17;;;0.95;;
17753;SDS011;8999;48.994;9.150;2024-03-02T14:26:17;1.30;;;1.02;;
17753;SDS011;8999;48.994;9.150;2024-03-02T14:28:49;1.50;;;1.00;;
17753;SDS011;8999;48.994;9.150;2024-03-02T14:31:22;1.20;;;0.90;;
17753;SDS011;8999;48.994;9.150;2024-03-02T14:33:53;2.42;;;1.00;;
17753;SDS011;8999;48.994;9.150;2024-03-02T14:36:26;1.13;;;1.02;;
17753;SDS011;8999;48.994;9.150;2024-03-02T14:38:58;1.13;;;0.90;;
17753;SDS011;8999;48.994;9.150;2024-03-02T14:41:30;2.38;;;0.90;;
17753;SDS011;8999;48.994;9.150;2024-03-02T14:44:02;1.75;;;1.00;;
17753;SDS011;8999;48.994;9.150;2024-03-02T14:46:34;0.90;;;0.80;;
17753;SDS011;8999;48.994;9.150;2024-03-02T14:49:05;1.73;;;0.68;;
17753;SDS011;8999;48.994;9.150;2024-03-02T14:51:39;4.22;;;0.88;;
17753;SDS011;8999;48.994;9.150;2024-03-02T14:54:10;1.17;;;0.77;;
17753;SDS011;8999;48.994;9.150;2024-03-02T14:56:42;1.50;;;0.80;;
17753;SDS011;8999;48.994;9.150;2024-03-02T14:59:14;1.15;;;0.85;;
17753;SDS011;8999;48.994;9.150;2024-03-02T15:01:45;1.35;;;0.98;;
17753;SDS011;8999;48.994;9.150;2024-03-02T15:04:18;1.35;;;1.02;;
17753;SDS011;8999;48.994;9.150;2024-03-02T15:06:52;1.27;;;0.93;;
17753;SDS011;8999;48.994;9.150;2024-03-02T15:09:23;1.05;;;0.90;;
17753;SDS011;8999;48.994;9.150;2024-03-02T15:11:55;2.60;;;1.65;;
17753;SDS011;8999;48.994;9.150;2024-03-02T15:14:29;2.03;;;1.40;;
17753;SDS011;8999;48.994;9.150;2024-03-02T15:17:01;2.47;;;1.52;;
17753;SDS011;8999;48.994;9.150;2024-03-02T15:19:33;1.52;;;1.15;;
17753;SDS011;8999;48.994;9.150;2024-03-02T15:22:06;5.03;;;2.30;;
17753;SDS011;8999;48.994;9.150;2024-03-02T15:24:38;1.42;;;0.90;;
17753;SDS011;8999;48.994;9.150;2024-03-02T15:27:09;1.95;;;1.35;;